• Join FlightAware (Why Join?)
  • Login
  • US Flag 
11:28AM EDT


 

Airport Tracker/Info


-or-


 

Live Flight TrackerFlight Track Log ✈ LAN2531 ✈ 06-May-2013 ✈ KJFK - SPIM / LIM

Flight Track Log - Related Links

Times and Time Zones

All times are in EDT time to prevent confusion due to time zone crossing. See the LAN2531 flight status page for this flight to view local times or setup timezone preferences in your user account.

Time Position Orientation Groundspeed Altitude Reporting Facility
EDT Latitude Longitude Course Direction KTS MPH feet Rate Location/Type
11:59PM 40.6430 -73.7690 31° Northeast 181 208  Level FlightAware
11:59PM 40.6590 -73.7560 32° Northeast 181 208 1,100 2,400 Climbing FlightAware
11:59PM 40.6650 -73.7390 65° Northeast 187 215 1,600 1,560 Climbing FlightAware
12:00AM 40.6690 -73.7020 82° East 223 257 2,300 1,740 Climbing FlightAware
12:00AM 40.6590 -73.6700 112° Southeast 245 282 3,200 2,400 Climbing FlightAware
12:00AM 40.6440 -73.6560 145° Southeast 255 293 3,900 2,880 Climbing FlightAware
12:01AM 40.6130 -73.6340 152° Southeast 266 306 5,400 3,240 Climbing FlightAware
12:01AM 40.5850 -73.6170 155° Southeast 264 304 6,900 3,720 Climbing FlightAware
12:02AM 40.5672 -73.6057 154° Southeast 263 303 7,900 3,600 Climbing FlightAware ADS-B
12:02AM 40.5502 -73.5952 155° Southeast 264 304 8,700 2,880 Climbing FlightAware ADS-B
12:02AM 40.5327 -73.5842 154° Southeast 268 308 9,400 2,700 Climbing FlightAware ADS-B
12:03AM 40.5028 -73.5651 154° Southeast 278 320 10,600 1,980 Climbing FlightAware ADS-B
12:03AM 40.4646 -73.5406 154° Southeast 317 365 11,300 1,320 Climbing FlightAware ADS-B
12:04AM 40.4225 -73.5136 154° Southeast 352 405 12,000 1,560 Climbing FlightAware ADS-B
12:04AM 40.3762 -73.4841 154° Southeast 377 434 12,900 2,280 Climbing FlightAware ADS-B
12:05AM 40.3272 -73.4530 154° Southeast 385 443 14,400 2,640 Climbing FlightAware ADS-B
12:05AM 40.2771 -73.4228 155° Southeast 394 453 15,600 2,340 Climbing FlightAware ADS-B
12:05AM 40.2572 -73.4184 170° South 404 465 16,000 2,220 Climbing FlightAware ADS-B
12:05AM 40.2484 -73.4181 179° South 405 466 16,200 2,760 Climbing FlightAware ADS-B
12:06AM 40.2324 -73.4191 183° South 408 470 16,600 2,700 Climbing FlightAware ADS-B
12:06AM 40.2074 -73.4259 192° South 414 476 17,200 2,520 Climbing FlightAware ADS-B
12:06AM 40.1933 -73.4335 202° Southwest 418 481 17,500 2,580 Climbing FlightAware ADS-B
12:06AM 40.1662 -73.4531 209° Southwest 423 487 18,200 2,160 Climbing FlightAware ADS-B
12:07AM 40.1131 -73.4924 210° Southwest 434 499 19,200 2,160 Climbing FlightAware ADS-B
12:07AM 40.0603 -73.5332 211° Southwest 441 507 20,400 1,920 Climbing FlightAware ADS-B
12:08AM 39.9955 -73.5826 210° Southwest 456 525 21,400 1,980 Climbing FlightAware ADS-B
12:08AM 39.9371 -73.6266 210° Southwest 458 527 22,700 1,440 Climbing FlightAware ADS-B
12:09AM 39.8736 -73.6744 210° Southwest 466 536 23,000 1,200 Climbing FlightAware ADS-B
12:09AM 39.8151 -73.7180 210° Southwest 465 535 24,000 1,740 Climbing FlightAware ADS-B
12:10AM 39.7584 -73.7603 210° Southwest 474 545 24,800 1,620 Climbing FlightAware ADS-B
12:10AM 39.6992 -73.8044 210° Southwest 478 550 25,700 1,800 Climbing FlightAware ADS-B
12:11AM 39.6405 -73.8493 211° Southwest 479 551 26,700 2,400 Climbing FlightAware ADS-B
12:11AM 39.5836 -73.8933 211° Southwest 470 541 28,200 2,460 Climbing FlightAware ADS-B
12:12AM 39.5246 -73.9389 211° Southwest 465 535 29,300 1,920 Climbing FlightAware ADS-B
12:12AM 39.4693 -73.9814 211° Southwest 465 535 30,200 1,800 Climbing FlightAware ADS-B
12:13AM 39.4135 -74.0241 211° Southwest 465 535 31,100 1,620 Climbing FlightAware ADS-B
12:13AM 39.3572 -74.0670 211° Southwest 458 527 31,900 840 Climbing FlightAware ADS-B
12:14AM 39.3016 -74.1093 210° Southwest 453 521 32,000 360 Climbing FlightAware ADS-B
12:14AM 39.2467 -74.1508 210° Southwest 454 522 32,300 840 Climbing FlightAware ADS-B
12:15AM 39.1906 -74.1934 210° Southwest 454 522 32,900 1,080 Climbing FlightAware ADS-B
12:16AM 39.1352 -74.2354 210° Southwest 460 529 33,400 960 Climbing FlightAware ADS-B
12:16AM 39.0793 -74.2776 210° Southwest 460 529 33,900 540 Climbing FlightAware ADS-B
12:17AM 39.0227 -74.3203 210° Southwest 460 529 34,000 60 Climbing FlightAware ADS-B
12:17AM 38.9660 -74.3630 210° Southwest 458 527 34,000  Level FlightAware ADS-B
12:18AM 38.9107 -74.4044 210° Southwest 458 527 34,000  Level FlightAware ADS-B
12:18AM 38.8557 -74.4457 210° Southwest 458 527 34,000  Level FlightAware ADS-B
12:19AM 38.7984 -74.4886 210° Southwest 458 527 34,000  Level FlightAware ADS-B
12:19AM 38.7435 -74.5297 210° Southwest 458 527 34,000  Level FlightAware ADS-B
12:20AM 38.6856 -74.5730 210° Southwest 458 527 34,000  Level FlightAware ADS-B
12:21AM 38.5854 -74.6474 210° Southwest 457 526 34,000  Level FlightAware ADS-B
12:21AM 38.5273 -74.6904 210° Southwest 455 524 34,000  Level FlightAware ADS-B
12:22AM 38.4702 -74.7326 210° Southwest 452 520 34,000  Level FlightAware ADS-B
12:22AM 38.4159 -74.7728 210° Southwest 450 518 34,000  Level FlightAware ADS-B
12:23AM 38.3760 -74.8020 210° Southwest 448 516 34,000  Level FlightAware
12:23AM 38.3141 -74.8479 210° Southwest 449 517 34,000  Level FlightAware ADS-B
12:24AM 38.2600 -74.8877 210° Southwest 446 513 34,000  Level FlightAware ADS-B
12:24AM 38.2057 -74.9274 210° Southwest 445 512 34,000  Level FlightAware ADS-B
12:25AM 38.1473 -74.9704 210° Southwest 444 511 34,000  Level FlightAware ADS-B
12:25AM 38.0934 -75.0098 210° Southwest 442 509 34,000  Level FlightAware ADS-B
12:26AM 38.0403 -75.0486 210° Southwest 439 505 34,000  Level FlightAware ADS-B
12:26AM 37.9630 -75.1050 210° Southwest 430 495 34,000  Level FlightAware
12:27AM 37.9400 -75.1216 210° Southwest 439 505 34,000  Level FlightAware ADS-B
12:27AM 37.8871 -75.1600 210° Southwest 436 502 34,000  Level FlightAware ADS-B
12:28AM 37.8349 -75.1980 210° Southwest 435 501 34,000  Level FlightAware ADS-B
12:28AM 37.7816 -75.2365 210° Southwest 433 498 34,000  Level FlightAware ADS-B
12:29AM 37.7294 -75.2743 210° Southwest 430 495 34,000  Level FlightAware ADS-B
12:29AM 37.6776 -75.3118 210° Southwest 427 491 34,000  Level FlightAware ADS-B
12:30AM 37.6254 -75.3493 210° Southwest 426 490 34,000  Level FlightAware ADS-B
12:31AM 37.5320 -75.4160 210° Southwest 423 487 34,000  Level FlightAware
12:31AM 37.4540 -75.4720 210° Southwest 421 484 34,000  Level FlightAware
12:32AM 37.3910 -75.5180 210° Southwest 422 486 34,000  Level FlightAware
12:33AM 37.3099 -75.5754 209° Southwest 422 486 34,000  Level FlightAware ADS-B
12:33AM 37.2591 -75.6117 210° Southwest 422 486 34,000  Level FlightAware ADS-B
12:34AM 37.2054 -75.6498 209° Southwest 421 484 34,000  Level FlightAware ADS-B
12:34AM 37.1533 -75.6870 210° Southwest 423 487 34,000  Level FlightAware ADS-B
12:35AM 37.1012 -75.7237 209° Southwest 423 487 34,000  Level FlightAware ADS-B
12:36AM 36.9951 -75.7988 209° Southwest 424 488 34,000  Level FlightAware ADS-B
12:37AM 36.8810 -75.8790 209° Southwest 34,000  Level FlightAware
12:38AM 36.7397 -75.9444 209° Southwest 417 480 34,000  Level Washington Center
12:39AM 36.6186 -75.9906 197° South 417 480 34,000  Level Washington Center
12:40AM 36.5078 -76.0339 197° South 417 480 34,000  Level Washington Center
12:41AM 36.3969 -76.0797 198° South 423 487 34,000  Level Washington Center
12:42AM 36.2822 -76.1203 196° South 423 487 34,000  Level Washington Center
12:43AM 36.1692 -76.1633 197° South 423 487 34,000 -60 Level Washington Center
12:44AM 36.0564 -76.2036 196° South 423 487 33,900  Descending Washington Center
12:45AM 35.9436 -76.2436 196° South 423 487 34,000  Climbing Washington Center
12:46AM 35.8306 -76.2889 198° South 423 487 33,900  Descending Washington Center
12:47AM 35.7156 -76.3264 195° South 423 487 34,000  Climbing Washington Center
12:48AM 35.6006 -76.3636 195° South 423 487 34,000  Level Washington Center
12:49AM 35.4897 -76.4033 196° South 418 481 34,000  Level Washington Center
12:50AM 35.3769 -76.4403 195° South 418 481 34,000  Level Washington Center
12:51AM 35.2681 -76.4850 199° South 418 481 34,000  Level Washington Center
12:52AM 35.1550 -76.5244 196° South 418 481 34,000  Level Washington Center
12:53AM 35.0442 -76.5636 196° South 418 481 34,000  Level Washington Center
12:54AM 34.9353 -76.6056 198° South 418 481 34,000  Level Washington Center
12:55AM 34.8203 -76.6419 195° South 418 481 34,000  Level Washington Center
12:56AM 34.7094 -76.6811 196° South 418 481 34,000  Level Washington Center
12:57AM 34.5942 -76.7172 194° South 418 481 34,000  Level Washington Center
12:58AM 34.4853 -76.7586 197° South 418 481 34,000  Level Washington Center
12:59AM 34.3744 -76.7975 196° South 418 481 34,000  Level Washington Center
01:00AM 34.2614 -76.8358 196° South 418 481 34,000  Level Washington Center
01:01AM 34.1503 -76.8719 195° South 418 481 34,000  Level Washington Center
01:02AM 34.0394 -76.9103 196° South 418 481 34,000  Level Washington Center
01:03AM 33.9283 -76.9486 196° South 418 481 34,000  Level Washington Center
01:06AM 33.6794 -77.0328 196° South 424 488 34,000 -60 Level Jacksonville Center
01:07AM 33.5664 -77.0678 194° South 424 488 33,900  Descending Jacksonville Center
01:08AM 33.4575 -77.1072 197° South 418 481 34,000  Climbing Jacksonville Center
01:09AM 33.3467 -77.1444 196° South 418 481 34,000  Level Jacksonville Center
01:10AM 33.2356 -77.1814 196° South 413 475 34,000 -60 Level Jacksonville Center
01:11AM 33.1286 -77.2153 195° South 413 475 33,900  Descending Jacksonville Center
01:12AM 33.0194 -77.2494 195° South 413 475 34,000  Climbing Jacksonville Center
01:13AM 32.9067 -77.2889 196° South 413 475 34,000  Level Jacksonville Center
01:14AM 32.7975 -77.3228 195° South 413 475 34,000  Level Jacksonville Center
01:15AM 32.6864 -77.3592 195° South 413 475 34,000  Level Jacksonville Center
01:16AM 32.5753 -77.3981 196° South 413 475 34,000  Level Jacksonville Center
01:17AM 32.4664 -77.4342 196° South 413 475 34,000  Level Jacksonville Center
01:18AM 32.3572 -77.4703 196° South 413 475 34,000  Level Jacksonville Center
01:19AM 32.2481 -77.5061 196° South 413 475 34,000  Level Jacksonville Center
01:20AM 32.1389 -77.5397 195° South 413 475 34,000  Level Jacksonville Center
01:21AM 32.0297 -77.5753 195° South 413 475 34,000  Level Jacksonville Center
01:22AM 31.9206 -77.6086 195° South 413 475 34,000  Level Jacksonville Center
01:23AM 31.8117 -77.6492 198° South 413 475 34,000  Level Jacksonville Center
01:24AM 31.7044 -77.6769 192° South 413 475 34,000  Level Jacksonville Center
01:25AM 31.5953 -77.7125 196° South 413 475 34,000  Level Jacksonville Center
01:26AM 31.4881 -77.7500 197° South 413 475 34,000  Level Jacksonville Center
01:27AM 31.3811 -77.7853 196° South 408 470 34,000 -60 Level Jacksonville Center
01:28AM 31.2719 -77.8228 196° South 408 470 33,900  Descending Jacksonville Center
01:29AM 31.1644 -77.8503 192° South 408 470 34,000  Climbing Jacksonville Center
01:30AM 31.0569 -77.8781 192° South 408 470 34,000  Level Jacksonville Center
01:31AM 30.9483 -77.9250 200° South 413 475 34,000  Level Jacksonville Center
01:32AM 30.7614 -77.9922 197° South 418 481 34,000  Level Miami Center
01:33AM 30.6653 -78.0200 194° South 409 471 34,000 -60 Level Miami Center
01:34AM 30.5608 -78.0528 195° South 398 458 33,900  Descending Miami Center
01:35AM 30.4522 -78.0875 195° South 403 464 34,000  Climbing Miami Center
01:36AM 30.3436 -78.1103 190° South 403 464 34,000  Level Miami Center
01:37AM 30.2331 -78.1283 188° South 403 464 34,000  Level Miami Center
01:38AM 30.1100 -78.1483 188° South 420 483 34,000  Level Miami Center
01:39AM 29.9908 -78.1708 189° South 425 489 34,000  Level Miami Center
01:40AM 29.8781 -78.1936 190° South 420 483 34,000  Level Miami Center
01:41AM 29.7611 -78.2136 188° South 420 483 34,000  Level Miami Center
01:42AM 29.6483 -78.2311 188° South 426 490 34,000  Level Miami Center
01:43AM 29.5250 -78.2464 186° South 431 496 34,000  Level Miami Center
01:44AM 29.4144 -78.2664 189° South 426 490 34,000  Level Miami Center
01:45AM 29.2972 -78.2864 188° South 428 493 34,000  Level Miami Center
01:46AM 29.1761 -78.2992 185° South 428 493 34,000  Level Miami Center
01:47AM 29.0653 -78.3189 189° South 423 487 34,000  Level Miami Center
01:48AM 28.9442 -78.3364 187° South 429 494 34,000  Level Miami Center
01:49AM 28.8333 -78.3561 189° South 429 494 34,000  Level Miami Center
01:50AM 28.7164 -78.3711 186° South 423 487 34,000  Level Miami Center
01:51AM 28.6014 -78.3886 188° South 428 493 34,000  Level Miami Center
01:57AM 27.9070 -78.4930 188° South 418 481 34,000  Level FlightAware
01:58AM 27.8150 -78.5070 188° South 421 484 34,000  Level FlightAware
01:59AM 27.7340 -78.5190 187° South 422 486 34,000  Level FlightAware
01:59AM 27.6490 -78.5320 188° South 423 487 34,000  Level FlightAware
02:00AM 27.5610 -78.5450 187° South 424 488 34,000  Level FlightAware
02:01AM 27.5440 -78.5480 189° South 424 488 34,000  Level FlightAware
02:02AM 27.3830 -78.5720 188° South 422 486 34,000  Level FlightAware
02:03AM 27.2980 -78.5850 188° South 422 486 34,000  Level FlightAware
02:03AM 27.2170 -78.5980 188° South 422 486 34,000  Level FlightAware
02:04AM 27.1320 -78.6100 187° South 421 484 34,000  Level FlightAware
02:05AM 27.0520 -78.6220 188° South 422 486 34,000  Level FlightAware
02:05AM 26.9770 -78.6340 188° South 423 487 34,000  Level FlightAware
02:06AM 26.8790 -78.6480 187° South 424 488 34,000  Level FlightAware
02:07AM 26.8000 -78.6600 188° South 425 489 34,000  Level FlightAware
02:07AM 26.7140 -78.6730 188° South 425 489 34,000  Level FlightAware
02:08AM 26.6360 -78.6850 188° South 425 489 34,000  Level FlightAware
02:09AM 26.5580 -78.6960 187° South 425 489 34,000  Level FlightAware
02:10AM 26.4520 -78.7120 188° South 418 481 34,000  Level FlightAware
02:10AM 26.3630 -78.7250 187° South 418 481 34,000  Level FlightAware
02:11AM 26.2550 -78.7420 188° South 426 490 34,000  Level FlightAware
02:12AM 26.1770 -78.7530 187° South 424 488 34,000  Level FlightAware
02:13AM 26.0900 -78.7660 188° South 424 488 34,000  Level FlightAware
02:13AM 26.0110 -78.7780 188° South 420 483 34,000  Level FlightAware
02:14AM 25.9310 -78.7890 187° South 422 486 34,000  Level FlightAware
02:15AM 25.8110 -78.8070 188° South 422 486 34,000  Level FlightAware
02:16AM 25.7330 -78.8190 188° South 423 487 34,000  Level FlightAware
02:17AM 25.6430 -78.8320 187° South 424 488 34,000 360 Level FlightAware
02:18AM 25.4330 -78.8630 188° South 422 486 35,000 300 Climbing FlightAware
02:20AM 25.2950 -78.8830 187° South 420 483 35,000  Level FlightAware
02:21AM 25.1270 -78.9070 187° South 418 481 35,000  Level FlightAware
02:22AM 24.9970 -78.9260 188° South 424 488 35,000  Level FlightAware
02:23AM 24.8860 -78.9420 187° South 424 488 35,000  Level FlightAware
02:24AM 24.8140 -78.9530 188° South 425 489 35,000  Level FlightAware
02:24AM 24.7230 -78.9650 187° South 425 489 35,000  Level FlightAware
02:25AM 24.6570 -78.9740 187° South 425 489 35,000  Level FlightAware
02:26AM 24.5520 -78.9910 188° South 426 490 35,000  Level FlightAware
02:27AM 24.4500 -79.0050 187° South 428 493 35,000  Level FlightAware
02:27AM 24.3830 -79.0140 187° South 428 493 35,000  Level FlightAware
02:28AM 24.3000 -79.0250 187° South 428 493 35,000  Level FlightAware
02:29AM 24.2330 -79.0340 187° South 428 493 35,000  Level FlightAware
02:30AM 24.1660 -79.0430 187° South 428 493 35,000  Level FlightAware
02:30AM 24.0990 -79.0520 187° South 428 493 35,000  Level FlightAware
02:31AM 24.0320 -79.0610 187° South 428 493 35,000  Level FlightAware
02:32AM 23.9660 -79.0700 187° South 428 493 35,000  Level FlightAware
02:32AM 23.8820 -79.0810 187° South 428 493 35,000  Level FlightAware
02:33AM 23.8150 -79.0900 187° South 428 493 35,000  Level FlightAware
02:34AM 23.7480 -79.0990 187° South 428 493 35,000  Level FlightAware
02:34AM 23.6820 -79.1080 187° South 428 493 35,000  Level FlightAware
02:35AM 23.6150 -79.1170 187° South 428 493 35,000  Level FlightAware
02:36AM 23.5310 -79.1280 187° South 428 493 35,000  Level FlightAware
02:38AM 23.3380 -79.1119 176° South  Level FlightAware Approximate
02:39AM 23.2198 -79.1020 176° South  Level FlightAware Approximate
02:40AM 23.1016 -79.0922 176° South  Level FlightAware Approximate
02:41AM 22.9834 -79.0824 176° South  Level FlightAware Approximate
02:42AM 22.8652 -79.0726 176° South  Level FlightAware Approximate
02:43AM 22.7471 -79.0628 176° South  Level FlightAware Approximate
02:44AM 22.6289 -79.0530 176° South  Level FlightAware Approximate
02:45AM 22.5107 -79.0433 176° South  Level FlightAware Approximate
02:46AM 22.3925 -79.0336 176° South  Level FlightAware Approximate
02:47AM 22.2743 -79.0239 176° South  Level FlightAware Approximate
02:48AM 22.1561 -79.0142 176° South  Level FlightAware Approximate
02:49AM 22.0379 -79.0045 176° South  Level FlightAware Approximate
02:50AM 21.9197 -78.9948 176° South  Level FlightAware Approximate
02:51AM 21.8015 -78.9852 176° South  Level FlightAware Approximate
02:52AM 21.6834 -78.9755 176° South  Level FlightAware Approximate
02:53AM 21.5652 -78.9659 176° South  Level FlightAware Approximate
02:54AM 21.4470 -78.9563 176° South  Level FlightAware Approximate
02:55AM 21.3288 -78.9467 176° South  Level FlightAware Approximate
02:56AM 21.2106 -78.9371 176° South  Level FlightAware Approximate
02:57AM 21.0924 -78.9276 176° South  Level FlightAware Approximate
02:58AM 20.9742 -78.9181 176° South  Level FlightAware Approximate
02:59AM 20.8560 -78.9085 176° South  Level FlightAware Approximate
03:00AM 20.7373 -78.8994 178° South  Level FlightAware Approximate
03:01AM 20.6188 -78.8941 178° South  Level FlightAware Approximate
03:02AM 20.5004 -78.8889 178° South  Level FlightAware Approximate
03:03AM 20.3820 -78.8836 178° South  Level FlightAware Approximate
03:04AM 20.2635 -78.8783 178° South  Level FlightAware Approximate
03:05AM 20.1451 -78.8731 178° South  Level FlightAware Approximate
03:06AM 20.0267 -78.8679 178° South  Level FlightAware Approximate
03:07AM 19.9083 -78.8626 178° South  Level FlightAware Approximate
03:08AM 19.7899 -78.8573 178° South  Level FlightAware Approximate
03:09AM 19.6714 -78.8521 178° South  Level FlightAware Approximate
03:10AM 19.5530 -78.8468 178° South  Level FlightAware Approximate
03:11AM 19.4346 -78.8415 178° South  Level FlightAware Approximate
03:12AM 19.3162 -78.8363 178° South  Level FlightAware Approximate
03:13AM 19.1978 -78.8311 178° South  Level FlightAware Approximate
03:14AM 19.0793 -78.8258 178° South  Level FlightAware Approximate
03:15AM 18.9609 -78.8206 178° South  Level FlightAware Approximate
03:16AM 18.8425 -78.8154 178° South  Level FlightAware Approximate
03:17AM 18.7240 -78.8102 178° South  Level FlightAware Approximate
03:18AM 18.6056 -78.8050 178° South  Level FlightAware Approximate
03:19AM 18.4872 -78.7998 178° South  Level FlightAware Approximate
03:20AM 18.3687 -78.7946 178° South  Level FlightAware Approximate
03:21AM 18.2503 -78.7895 178° South  Level FlightAware Approximate
03:22AM 18.1319 -78.7843 178° South  Level FlightAware Approximate
03:23AM 18.0135 -78.7791 178° South  Level FlightAware Approximate
03:24AM 17.8950 -78.7740 178° South  Level FlightAware Approximate
03:25AM 17.7766 -78.7688 178° South  Level FlightAware Approximate
03:26AM 17.6582 -78.7637 178° South  Level FlightAware Approximate
03:27AM 17.5397 -78.7586 178° South  Level FlightAware Approximate
03:28AM 17.4213 -78.7534 178° South  Level FlightAware Approximate
03:29AM 17.3029 -78.7483 178° South  Level FlightAware Approximate
03:30AM 17.1844 -78.7432 178° South  Level FlightAware Approximate
03:31AM 17.0660 -78.7381 178° South  Level FlightAware Approximate
03:32AM 16.9476 -78.7330 178° South  Level FlightAware Approximate
03:33AM 16.8291 -78.7279 178° South  Level FlightAware Approximate
03:34AM 16.7107 -78.7228 178° South  Level FlightAware Approximate
03:35AM 16.5923 -78.7177 178° South  Level FlightAware Approximate
03:36AM 16.4739 -78.7127 178° South  Level FlightAware Approximate
03:37AM 16.3554 -78.7076 178° South  Level FlightAware Approximate
03:38AM 16.2370 -78.7025 178° South  Level FlightAware Approximate
03:39AM 16.1186 -78.6975 178° South  Level FlightAware Approximate
03:40AM 16.0001 -78.6924 178° South  Level FlightAware Approximate
03:41AM 15.8817 -78.6874 178° South  Level FlightAware Approximate
03:42AM 15.7633 -78.6823 178° South  Level FlightAware Approximate
03:43AM 15.6448 -78.6773 178° South  Level FlightAware Approximate
03:44AM 15.5264 -78.6723 178° South  Level FlightAware Approximate
03:45AM 15.4080 -78.6673 178° South  Level FlightAware Approximate
03:46AM 15.2896 -78.6622 178° South  Level FlightAware Approximate
03:47AM 15.1711 -78.6572 178° South  Level FlightAware Approximate
03:48AM 15.0527 -78.6522 178° South  Level FlightAware Approximate
03:49AM 14.9344 -78.6470 178° South  Level FlightAware Approximate
03:50AM 14.8159 -78.6417 178° South  Level FlightAware Approximate
03:51AM 14.6975 -78.6364 178° South  Level FlightAware Approximate
03:52AM 14.5791 -78.6311 178° South  Level FlightAware Approximate
03:53AM 14.4607 -78.6258 178° South  Level FlightAware Approximate
03:54AM 14.3422 -78.6205 178° South  Level FlightAware Approximate
03:55AM 14.2238 -78.6152 178° South  Level FlightAware Approximate
03:56AM 14.1054 -78.6099 178° South  Level FlightAware Approximate
03:57AM 13.9870 -78.6046 178° South  Level FlightAware Approximate
03:58AM 13.8686 -78.5993 178° South  Level FlightAware Approximate
03:59AM 13.7501 -78.5941 178° South  Level FlightAware Approximate
04:00AM 13.6317 -78.5888 178° South  Level FlightAware Approximate
04:01AM 13.5133 -78.5835 178° South  Level FlightAware Approximate
04:02AM 13.3949 -78.5783 178° South  Level FlightAware Approximate
04:03AM 13.2765 -78.5730 178° South  Level FlightAware Approximate
04:04AM 13.1580 -78.5678 178° South  Level FlightAware Approximate
04:05AM 13.0397 -78.5626 178° South  Level FlightAware Approximate
04:05AM 12.3190 -79.4230 178° South 451 519 35,000  Level FlightAware
04:06AM 12.9213 -78.5575 178° South  Level FlightAware Approximate
04:06AM 12.2350 -79.4260 182° South 451 519 35,000  Level FlightAware
04:07AM 12.1450 -79.4290 182° South 451 519 35,000  Level FlightAware
04:07AM 12.0810 -79.4310 182° South 451 519 35,000  Level FlightAware
04:09AM 11.8530 -79.4390 182° South 449 517 35,000  Level FlightAware
04:10AM 11.7710 -79.4420 182° South 448 516 35,000  Level FlightAware
04:10AM 11.6900 -79.4440 181° South 448 516 35,000  Level FlightAware
04:11AM 11.5930 -79.4480 182° South 448 516 35,000  Level FlightAware
04:12AM 11.5110 -79.4510 182° South 448 516 35,000  Level FlightAware
04:13AM 11.4190 -79.4540 182° South 449 517 35,000  Level FlightAware
04:13AM 11.3300 -79.4570 182° South 449 517 35,000  Level FlightAware
04:14AM 11.2460 -79.4600 182° South 450 518 35,000  Level FlightAware
04:15AM 11.1530 -79.4630 182° South 451 519 35,000  Level FlightAware
04:15AM 11.0680 -79.4660 182° South 451 519 35,000  Level FlightAware
04:16AM 10.9720 -79.4690 182° South 451 519 35,000  Level FlightAware
04:17AM 10.8800 -79.4720 182° South 451 519 35,000  Level FlightAware
04:17AM 10.8040 -79.4750 182° South 451 519 35,000  Level FlightAware
04:20AM 10.5623 -79.4495 174° South  Level Estimated
04:20AM 10.4770 -79.4860 174° South 451 519 35,000  Level FlightAware
04:21AM 10.3930 -79.4890 182° South 450 518 35,000  Level FlightAware
04:21AM 10.3100 -79.4920 182° South 450 518 35,000  Level FlightAware
04:22AM 10.2150 -79.4950 182° South 449 517 35,000  Level FlightAware
04:23AM 10.1310 -79.4980 182° South 448 516 35,000  Level FlightAware
04:24AM 10.0480 -79.5010 182° South 448 516 35,000  Level FlightAware
04:24AM 9.9520 -79.5040 182° South 448 516 35,000  Level FlightAware
04:25AM 9.8590 -79.5080 182° South 448 516 35,000  Level FlightAware
04:26AM 9.7750 -79.5100 181° South 448 516 35,000  Level FlightAware
04:26AM 9.6900 -79.5130 182° South 449 517 35,000  Level FlightAware
04:27AM 9.5950 -79.5170 182° South 449 517 35,000  Level FlightAware
04:28AM 9.5120 -79.5190 181° South 449 517 35,000  Level FlightAware
04:28AM 9.4390 -79.5220 182° South 449 517 35,000  Level FlightAware
04:31AM 9.1877 -79.4934 174° South  Level Estimated
04:31AM 9.1360 -79.5320 174° South 449 517 35,000  Level FlightAware
04:32AM 8.9850 -79.5370 182° South 450 518 35,000  Level FlightAware
04:33AM 8.8970 -79.5380 181° South 450 518 35,000  Level FlightAware
04:34AM 8.8260 -79.5400 182° South 450 518 35,000  Level FlightAware
04:34AM 8.7550 -79.5410 181° South 450 518 35,000  Level FlightAware
04:35AM 8.6850 -79.5420 181° South 450 518 35,000  Level FlightAware
04:36AM 8.6140 -79.5430 181° South 450 518 35,000  Level FlightAware
04:36AM 8.5250 -79.5450 181° South 450 518 35,000  Level FlightAware
04:37AM 8.4550 -79.5460 181° South 450 518 35,000  Level FlightAware
04:38AM 8.3840 -79.5470 181° South 450 518 35,000  Level FlightAware
04:38AM 8.3130 -79.5490 182° South 450 518 35,000  Level FlightAware
04:39AM 8.2250 -79.5500 181° South 450 518 35,000  Level FlightAware
04:40AM 8.1540 -79.5510 181° South 450 518 35,000  Level FlightAware
04:41AM 8.0830 -79.5530 182° South 450 518 35,000  Level FlightAware
04:41AM 8.0120 -79.5540 181° South 450 518 35,000  Level FlightAware
04:44AM 7.7512 -79.5220 173° South  Level Estimated
04:45AM 7.6335 -79.5076 173° South  Level Estimated
04:46AM 7.5159 -79.4932 173° South  Level Estimated
04:47AM 7.3982 -79.4788 173° South  Level Estimated
04:48AM 7.2805 -79.4643 173° South  Level Estimated
04:49AM 7.1629 -79.4500 173° South  Level Estimated
04:50AM 7.0452 -79.4356 173° South  Level Estimated
04:51AM 6.9275 -79.4212 173° South  Level Estimated
04:52AM 6.8099 -79.4068 173° South  Level Estimated
04:53AM 6.6922 -79.3925 173° South  Level Estimated
04:54AM 6.5745 -79.3781 173° South  Level Estimated
04:55AM 6.4569 -79.3637 173° South  Level Estimated
04:56AM 6.3392 -79.3494 173° South  Level Estimated
04:57AM 6.2215 -79.3351 173° South  Level Estimated
04:58AM 6.1038 -79.3207 173° South  Level Estimated
04:59AM 5.9862 -79.3064 173° South  Level Estimated
05:00AM 5.8685 -79.2921 173° South  Level Estimated
05:01AM 5.7508 -79.2778 173° South  Level Estimated
05:02AM 5.6332 -79.2635 173° South  Level Estimated
05:03AM 5.5155 -79.2492 173° South  Level Estimated
05:04AM 5.3978 -79.2349 173° South  Level Estimated
05:05AM 5.2801 -79.2206 173° South  Level Estimated
05:06AM 5.1625 -79.2063 173° South  Level Estimated
05:07AM 5.0448 -79.1920 173° South  Level Estimated
05:08AM 4.9271 -79.1778 173° South  Level Estimated
05:09AM 4.8095 -79.1635 173° South  Level Estimated
05:10AM 4.6918 -79.1492 173° South  Level Estimated
05:11AM 4.5741 -79.1350 173° South  Level Estimated
05:12AM 4.4565 -79.1207 173° South  Level Estimated
05:13AM 4.3388 -79.1065 173° South  Level Estimated
05:14AM 4.2211 -79.0922 173° South  Level Estimated
05:15AM 4.1034 -79.0780 173° South  Level Estimated
05:16AM 3.9858 -79.0638 173° South  Level Estimated
05:17AM 3.8681 -79.0495 173° South  Level Estimated
05:18AM 3.7504 -79.0353 173° South  Level Estimated
05:19AM 3.6328 -79.0211 173° South  Level Estimated
05:20AM 3.5151 -79.0069 173° South  Level Estimated
05:21AM 3.3974 -78.9926 173° South  Level Estimated
05:22AM 3.2797 -78.9784 173° South  Level Estimated
05:23AM 3.1620 -78.9642 173° South  Level Estimated
05:24AM 3.0443 -78.9500 173° South  Level Estimated
05:25AM 2.9267 -78.9358 173° South  Level Estimated
05:26AM 2.8090 -78.9216 173° South  Level Estimated
05:27AM 2.6913 -78.9074 173° South  Level Estimated
05:28AM 2.5736 -78.8932 173° South  Level Estimated
05:29AM 2.4560 -78.8790 173° South  Level Estimated
05:30AM 2.3383 -78.8648 173° South  Level Estimated
05:31AM 2.2206 -78.8506 173° South  Level Estimated
05:32AM 2.1029 -78.8364 173° South  Level Estimated
05:33AM 1.9852 -78.8223 173° South  Level Estimated
05:34AM 1.8676 -78.8081 173° South  Level Estimated
05:35AM 1.7499 -78.7939 173° South  Level Estimated
05:36AM 1.6322 -78.7797 173° South  Level Estimated
05:37AM 1.5145 -78.7655 173° South  Level Estimated
05:38AM 1.3968 -78.7514 173° South  Level Estimated
05:39AM 1.2792 -78.7372 173° South  Level Estimated
05:40AM 1.1615 -78.7230 173° South  Level Estimated
05:41AM 1.0438 -78.7089 173° South  Level Estimated
05:42AM 0.9261 -78.6947 173° South  Level Estimated
05:43AM 0.8084 -78.6805 173° South  Level Estimated
05:44AM 0.6908 -78.6664 173° South  Level Estimated
05:45AM 0.5731 -78.6522 173° South  Level Estimated
05:46AM 0.4554 -78.6380 173° South  Level Estimated
05:47AM 0.3377 -78.6238 173° South  Level Estimated
05:48AM 0.2200 -78.6097 173° South  Level Estimated
05:49AM 0.1023 -78.5955 173° South  Level Estimated
05:50AM -0.0153 -78.5813 173° South  Level Estimated
05:51AM -0.1330 -78.5672 173° South  Level Estimated
05:52AM -0.2507 -78.5530 173° South  Level Estimated
05:53AM -0.3684 -78.5388 173° South  Level Estimated
05:54AM -0.4861 -78.5247 173° South  Level Estimated
05:55AM -0.6037 -78.5105 173° South  Level Estimated
05:56AM -0.7214 -78.4963 173° South  Level Estimated
05:57AM -0.8391 -78.4821 173° South  Level Estimated
05:58AM -0.9568 -78.4680 173° South  Level Estimated
05:59AM -1.0745 -78.4538 173° South  Level Estimated
06:00AM -1.1921 -78.4396 173° South  Level Estimated
06:01AM -1.3098 -78.4255 173° South  Level Estimated
06:02AM -1.4275 -78.4113 173° South  Level Estimated
06:03AM -1.5452 -78.3971 173° South  Level Estimated
06:04AM -1.6629 -78.3829 173° South  Level Estimated
06:05AM -1.7805 -78.3688 173° South  Level Estimated
06:06AM -1.8982 -78.3546 173° South  Level Estimated
06:07AM -2.0159 -78.3404 173° South  Level Estimated
06:08AM -2.1336 -78.3262 173° South  Level Estimated
06:09AM -2.2513 -78.3120 173° South  Level Estimated
06:10AM -2.3689 -78.2979 173° South  Level Estimated
06:11AM -2.4866 -78.2837 173° South  Level Estimated
06:12AM -2.6043 -78.2695 173° South  Level Estimated
06:13AM -2.7220 -78.2553 173° South  Level Estimated
06:14AM -2.8396 -78.2411 173° South  Level Estimated
06:15AM -2.9573 -78.2269 173° South  Level Estimated
06:16AM -3.0750 -78.2127 173° South  Level Estimated
06:17AM -3.1927 -78.1985 173° South  Level Estimated
06:18AM -3.3104 -78.1842 173° South  Level Estimated
06:19AM -3.4281 -78.1700 173° South  Level Estimated
06:20AM -3.5457 -78.1558 173° South  Level Estimated
06:21AM -3.6634 -78.1416 173° South  Level Estimated
06:22AM -3.7811 -78.1274 173° South  Level Estimated
06:23AM -3.8988 -78.1132 173° South  Level Estimated
06:24AM -4.0164 -78.0989 173° South  Level Estimated
06:25AM -4.1341 -78.0847 173° South  Level Estimated
06:26AM -4.2518 -78.0704 173° South  Level Estimated
06:27AM -4.3694 -78.0562 173° South  Level Estimated
06:28AM -4.4871 -78.0419 173° South  Level Estimated
06:29AM -4.6048 -78.0277 173° South  Level Estimated
06:30AM -4.7224 -78.0134 173° South  Level Estimated
06:31AM -4.8401 -77.9992 173° South  Level Estimated
06:32AM -4.9578 -77.9849 173° South  Level Estimated
06:33AM -5.0755 -77.9706 173° South  Level Estimated
06:34AM -5.1931 -77.9564 173° South  Level Estimated
06:35AM -5.3108 -77.9421 173° South  Level Estimated
06:36AM -5.4285 -77.9278 173° South  Level Estimated
06:37AM -5.5461 -77.9135 173° South  Level Estimated
06:38AM -5.6638 -77.8992 173° South  Level Estimated
06:39AM -5.7815 -77.8849 173° South  Level Estimated
06:40AM -5.8991 -77.8706 173° South  Level Estimated
06:41AM -6.0168 -77.8562 173° South  Level Estimated
06:42AM -6.1345 -77.8419 173° South  Level Estimated
06:43AM -6.2522 -77.8276 173° South  Level Estimated
06:44AM -6.3698 -77.8132 173° South  Level Estimated
06:45AM -6.4875 -77.7989 173° South  Level Estimated
06:46AM -6.6052 -77.7846 173° South  Level Estimated
06:47AM -6.7228 -77.7702 173° South  Level Estimated
06:48AM -6.8405 -77.7558 173° South  Level Estimated
06:49AM -6.9582 -77.7414 173° South  Level Estimated
06:50AM -7.0759 -77.7271 173° South  Level Estimated
06:51AM -7.1935 -77.7127 173° South  Level Estimated
06:52AM -7.3112 -77.6983 173° South  Level Estimated
06:53AM -7.4289 -77.6839 173° South  Level Estimated
06:54AM -7.5465 -77.6695 173° South  Level Estimated
06:55AM -7.6642 -77.6551 173° South  Level Estimated
06:56AM -7.7818 -77.6406 173° South  Level Estimated
06:57AM -7.8995 -77.6262 173° South  Level Estimated
06:58AM -8.0171 -77.6118 173° South  Level Estimated
06:59AM -8.1348 -77.5973 173° South  Level Estimated
07:00AM -8.2525 -77.5828 173° South  Level Estimated
07:01AM -8.3701 -77.5684 173° South  Level Estimated
07:02AM -8.4878 -77.5539 173° South  Level Estimated
07:03AM -8.6054 -77.5394 173° South  Level Estimated
07:04AM -8.7231 -77.5249 173° South  Level Estimated
07:05AM -8.8408 -77.5104 173° South  Level Estimated
07:06AM -8.9584 -77.4959 173° South  Level Estimated
07:07AM -9.0761 -77.4814 173° South  Level Estimated
07:08AM -9.1938 -77.4669 173° South  Level Estimated
07:09AM -9.3114 -77.4523 173° South  Level Estimated
07:10AM -9.4291 -77.4378 173° South  Level Estimated
07:11AM -9.5467 -77.4232 173° South  Level Estimated
07:12AM -9.6644 -77.4087 173° South  Level Estimated
07:13AM -9.7820 -77.3941 173° South  Level Estimated
07:14AM -9.8997 -77.3795 173° South  Level Estimated
07:15AM -10.0173 -77.3649 173° South  Level Estimated
07:16AM -10.1350 -77.3503 173° South  Level Estimated
07:17AM -10.2526 -77.3356 173° South  Level Estimated
07:18AM -10.3703 -77.3210 173° South  Level Estimated
07:19AM -10.4879 -77.3064 173° South  Level Estimated
07:20AM -10.6056 -77.2917 173° South  Level Estimated
07:21AM -10.7232 -77.2770 173° South  Level Estimated
07:22AM -10.8409 -77.2624 173° South  Level Estimated
07:23AM -10.9585 -77.2477 173° South  Level Estimated
07:24AM -11.0762 -77.2330 173° South  Level Estimated
07:25AM -11.1938 -77.2182 173° South  Level Estimated
07:26AM -11.3115 -77.2035 173° South  Level Estimated
07:27AM -11.4291 -77.1888 173° South  Level Estimated
07:28AM -11.5467 -77.1740 173° South  Level Estimated
07:29AM -11.6644 -77.1593 173° South  Level Estimated
07:30AM -11.7820 -77.1445 173° South  Level Estimated
07:31AM -11.8997 -77.1297 173° South  Level Estimated
07:32AM -12.0173 -77.1149 173° South  Level Estimated
07:33AM -12.0219 -77.1143 173° South  Level Estimated
07:34AM -12.0219 -77.1143 44° Northeast  Level Estimated
07:35AM -12.0219 -77.1143 44° Northeast  Level Estimated
07:36AM -12.0219 -77.1143 44° Northeast  Level Estimated
07:37AM -12.0219 -77.1143 44° Northeast  Level Estimated
07:38AM -12.0219 -77.1143 44° Northeast  Level Estimated
07:39AM -12.0219 -77.1143 44° Northeast  Level Estimated
07:40AM -12.0219 -77.1143 44° Northeast  Level Estimated
07:41AM -12.0219 -77.1143 44° Northeast  Level Estimated
07:42AM -12.0219 -77.1143 44° Northeast  Level Estimated
07:43AM -12.0219 -77.1143 44° Northeast  Level Estimated
07:44AM -12.0219 -77.1143 44° Northeast  Level Estimated
07:45AM -12.0219 -77.1143 44° Northeast  Level Estimated
07:46AM -12.0219 -77.1143 44° Northeast  Level Estimated
07:47AM -12.0219 -77.1143 44° Northeast  Level Estimated
07:48AM -12.0219 -77.1143 44° Northeast  Level Estimated
07:49AM -12.0219 -77.1143 44° Northeast  Level Estimated
07:50AM -12.0219 -77.1143 44° Northeast  Level Estimated